Time;durP1;ratioP1;P1;durP2;ratioP2;P2;SDS_P1;SDS_P2;PMS_P1;PMS_P2;Temp;Humidity;BMP_temperature;BMP_pressure;BME280_temperature;BME280_humidity;BME280_pressure;Samples;Min_cycle;Max_cycle;Signal;HPM_P1;HPM_P2
2021/03/24 00:00:39;;;;;;;30.33;14.43;;;3.40;69.00;;;;;;5072517;28;20032;-67
2021/03/24 00:03:05;;;;;;;30.38;15.10;;;3.40;69.00;;;;;;5073054;28;20395;-67
2021/03/24 00:05:38;;;;;;;31.30;15.35;;;3.30;68.90;;;;;;5074805;28;20066;-67
2021/03/24 00:08:05;;;;;;;33.97;15.38;;;3.30;69.10;;;;;;5075902;28;20036;-67
2021/03/24 00:10:31;;;;;;;34.05;14.98;;;3.20;69.10;;;;;;5073816;28;20043;-67
2021/03/24 00:12:59;;;;;;;29.58;14.88;;;3.20;69.30;;;;;;5076063;28;20446;-67
2021/03/24 00:15:25;;;;;;;31.98;14.48;;;3.20;69.40;;;;;;5074868;28;20028;-67
2021/03/24 00:17:51;;;;;;;29.83;14.15;;;3.10;69.40;;;;;;5082277;28;20028;-67
2021/03/24 00:20:21;;;;;;;30.73;13.95;;;3.10;69.50;;;;;;5067404;28;20035;-67
2021/03/24 00:22:46;;;;;;;33.70;14.27;;;3.10;69.50;;;;;;5076042;28;20115;-67
2021/03/24 00:25:15;;;;;;;31.42;15.52;;;3.10;69.50;;;;;;5065227;28;20154;-67
2021/03/24 00:27:43;;;;;;;29.65;14.05;;;3.10;69.40;;;;;;5075433;28;20100;-67
2021/03/24 00:30:09;;;;;;;31.30;14.55;;;3.10;69.60;;;;;;5074506;28;20032;-67
2021/03/24 00:32:35;;;;;;;30.45;14.60;;;3.00;69.50;;;;;;5074513;28;20028;-67
2021/03/24 00:35:01;;;;;;;31.45;14.98;;;2.90;69.50;;;;;;5074396;28;20036;-67
2021/03/24 00:37:26;;;;;;;34.17;14.85;;;2.90;69.60;;;;;;5075062;28;20032;-67
2021/03/24 00:39:52;;;;;;;32.67;14.43;;;2.80;69.70;;;;;;5060078;28;20431;-67
2021/03/24 00:42:17;;;;;;;34.35;15.25;;;2.80;69.90;;;;;;5075523;28;20476;-67
2021/03/24 00:44:43;;;;;;;32.15;14.75;;;2.80;69.90;;;;;;5071255;28;20054;-67
2021/03/24 00:47:09;;;;;;;32.10;15.38;;;2.80;69.90;;;;;;5065104;28;20560;-67
2021/03/24 00:49:34;;;;;;;30.08;15.00;;;2.70;69.80;;;;;;5070842;28;20114;-67
2021/03/24 00:52:00;;;;;;;31.17;15.25;;;2.70;69.90;;;;;;5093706;28;20027;-67
2021/03/24 00:54:26;;;;;;;32.13;15.48;;;2.70;70.10;;;;;;5073951;28;20747;-67
2021/03/24 00:56:51;;;;;;;30.73;14.68;;;2.70;70.20;;;;;;5074604;28;20069;-67
2021/03/24 00:59:17;;;;;;;29.13;13.93;;;2.60;70.10;;;;;;5067899;28;20036;-67
2021/03/24 01:01:43;;;;;;;32.10;14.73;;;2.70;70.20;;;;;;5074309;28;20027;-67
2021/03/24 01:04:09;;;;;;;31.83;15.52;;;2.70;70.10;;;;;;5074722;28;20089;-67
2021/03/24 01:06:39;;;;;;;32.33;15.02;;;2.60;69.90;;;;;;5069587;28;20056;-67
2021/03/24 01:09:08;;;;;;;30.65;14.32;;;2.60;70.10;;;;;;5073975;28;20078;-67
2021/03/24 01:11:38;;;;;;;30.88;14.18;;;2.50;70.00;;;;;;5072368;28;20036;-67
2021/03/24 01:14:06;;;;;;;30.02;14.43;;;2.50;70.10;;;;;;5089222;28;20073;-67
2021/03/24 01:16:32;;;;;;;28.67;14.45;;;2.50;70.10;;;;;;5065216;28;20437;-68
2021/03/24 01:18:58;;;;;;;31.55;15.05;;;2.50;70.20;;;;;;5066186;28;20169;-67
2021/03/24 01:21:23;;;;;;;31.90;14.93;;;2.50;70.20;;;;;;5074369;28;20028;-67
2021/03/24 01:23:49;;;;;;;33.42;14.98;;;2.50;70.20;;;;;;5074565;28;20427;-67
2021/03/24 01:26:15;;;;;;;26.77;13.80;;;2.40;70.20;;;;;;5074029;28;20028;-67
2021/03/24 01:28:41;;;;;;;32.45;15.30;;;2.40;70.40;;;;;;5092731;28;20031;-67
2021/03/24 01:31:07;;;;;;;30.40;14.90;;;2.40;70.50;;;;;;5069652;28;20020;-67
2021/03/24 01:33:33;;;;;;;27.73;14.18;;;2.40;70.50;;;;;;5067177;28;20024;-67
2021/03/24 01:35:58;;;;;;;27.95;13.90;;;2.40;70.40;;;;;;5068323;28;20077;-67
2021/03/24 01:38:25;;;;;;;32.10;14.85;;;2.40;70.40;;;;;;5074383;28;20046;-67
2021/03/24 01:40:56;;;;;;;28.85;14.02;;;2.40;70.40;;;;;;5074313;28;20077;-67
2021/03/24 01:43:28;;;;;;;30.08;14.70;;;2.40;70.50;;;;;;5074244;28;20024;-67
2021/03/24 01:46:16;;;;;;;29.17;14.63;;;2.40;70.50;;;;;;5065909;28;20020;-67
2021/03/24 01:48:42;;;;;;;29.35;15.13;;;2.30;70.40;;;;;;5067869;28;20055;-67
2021/03/24 01:51:08;;;;;;;28.98;14.23;;;2.30;70.30;;;;;;5095898;22;20440;-86
2021/03/24 01:53:37;;;;;;;30.50;15.30;;;2.20;70.40;;;;;;5058262;28;20028;-86
2021/03/24 01:56:04;;;;;;;28.95;14.48;;;2.20;70.60;;;;;;5055273;28;20122;-86
2021/03/24 01:58:30;;;;;;;31.95;15.10;;;2.20;70.70;;;;;;5060610;28;20031;-86
2021/03/24 02:00:56;;;;;;;28.45;14.32;;;2.10;70.70;;;;;;5061132;28;20021;-86
2021/03/24 02:03:26;;;;;;;29.50;14.38;;;2.10;70.90;;;;;;5079130;28;20068;-86
2021/03/24 02:05:54;;;;;;;27.15;13.63;;;2.10;70.90;;;;;;5061274;28;20032;-86
2021/03/24 02:08:29;;;;;;;27.85;14.40;;;2.10;70.90;;;;;;5061516;28;20057;-88
2021/03/24 02:11:23;;;;;;;28.88;13.82;;;2.10;71.40;;;;;;5060973;28;20033;-86
2021/03/24 02:13:57;;;;;;;27.05;13.85;;;2.10;70.90;;;;;;5059714;28;20048;-86
2021/03/24 02:16:30;;;;;;;30.15;14.18;;;2.10;70.70;;;;;;5052514;28;20032;-86
2021/03/24 02:18:59;;;;;;;29.38;13.43;;;2.10;70.80;;;;;;5071129;28;20024;-86
2021/03/24 02:21:28;;;;;;;30.08;14.00;;;2.10;70.80;;;;;;5056230;28;20049;-85
2021/03/24 02:23:58;;;;;;;31.02;14.57;;;2.00;70.70;;;;;;5052224;28;20111;-86
2021/03/24 02:26:31;;;;;;;30.70;14.55;;;2.00;70.80;;;;;;5082084;28;20115;-85
2021/03/24 02:28:57;;;;;;;;;;;1.90;70.80;;;;;;5083021;28;20019;-86
2021/03/24 02:31:25;;;;;;;31.42;13.02;;;1.80;70.50;;;;;;5063872;28;19908;-85
2021/03/24 02:33:53;;;;;;;30.75;13.90;;;1.80;70.70;;;;;;5061766;28;20031;-86
2021/03/24 02:36:21;;;;;;;31.02;14.35;;;1.70;70.80;;;;;;5061291;28;20012;-86
2021/03/24 02:38:49;;;;;;;32.70;13.70;;;1.70;70.90;;;;;;5060943;28;20073;-86
2021/03/24 02:41:17;;;;;;;32.92;14.05;;;1.70;71.00;;;;;;5057509;28;20040;-86
2021/03/24 02:43:43;;;;;;;31.85;14.75;;;1.70;71.10;;;;;;5059681;28;20032;-86
2021/03/24 02:46:10;;;;;;;29.63;14.27;;;1.60;71.10;;;;;;5052792;28;20339;-86
2021/03/24 02:48:38;;;;;;;29.77;13.75;;;1.60;71.30;;;;;;5060454;28;20021;-86
2021/03/24 02:51:10;;;;;;;32.25;14.23;;;1.60;71.30;;;;;;5054251;28;20037;-86
2021/03/24 02:53:38;;;;;;;31.00;14.77;;;1.50;71.20;;;;;;5056428;28;20099;-86
2021/03/24 02:56:06;;;;;;;28.63;13.80;;;1.50;71.30;;;;;;5059726;28;20130;-86
2021/03/24 02:58:33;;;;;;;28.88;13.60;;;1.40;71.40;;;;;;5068414;28;20025;-86
2021/03/24 03:01:01;;;;;;;30.38;13.57;;;1.40;71.60;;;;;;5060167;28;20080;-86
2021/03/24 03:03:32;;;;;;;30.83;14.13;;;1.40;71.40;;;;;;5060053;28;20032;-87
2021/03/24 03:06:00;;;;;;;29.58;13.95;;;1.30;71.40;;;;;;5059222;28;20028;-86
2021/03/24 03:08:32;;;;;;;32.78;15.20;;;1.30;71.40;;;;;;5060287;28;20025;-87
2021/03/24 03:11:11;;;;;;;28.77;13.48;;;1.30;71.60;;;;;;5077205;28;20039;-86
2021/03/24 03:13:52;;;;;;;31.25;13.90;;;1.30;71.80;;;;;;5060368;28;20037;-86
2021/03/24 03:16:30;;;;;;;30.35;13.55;;;1.40;72.00;;;;;;5055651;28;20033;-86
2021/03/24 03:19:00;;;;;;;30.90;14.05;;;1.40;71.80;;;;;;5065797;28;20043;-86
2021/03/24 03:21:46;;;;;;;34.53;14.95;;;1.50;71.70;;;;;;5053895;28;20319;-86
2021/03/24 03:24:13;;;;;;;29.33;13.25;;;1.50;71.60;;;;;;5052137;28;20261;-86
2021/03/24 03:26:40;;;;;;;27.73;13.07;;;1.50;71.50;;;;;;5060516;28;20035;-86
2021/03/24 03:29:16;;;;;;;29.85;13.60;;;1.50;71.40;;;;;;5058367;28;20120;-86
2021/03/24 03:31:47;;;;;;;29.15;14.10;;;1.40;71.50;;;;;;5059369;28;20033;-86
2021/03/24 03:34:15;;;;;;;30.65;14.05;;;1.40;71.50;;;;;;5059748;28;20056;-86
2021/03/24 03:36:45;;;;;;;31.17;13.70;;;1.40;71.60;;;;;;5058602;28;20036;-86
2021/03/24 03:39:16;;;;;;;28.77;12.30;;;1.30;71.60;;;;;;5059774;28;20020;-86
2021/03/24 03:41:43;;;;;;;31.55;14.20;;;1.20;71.70;;;;;;5068598;28;20025;-85
2021/03/24 03:44:08;;;;;;;30.67;13.63;;;1.20;71.70;;;;;;5059848;28;20028;-86
2021/03/24 03:46:38;;;;;;;29.33;13.30;;;1.10;71.70;;;;;;5056654;28;20031;-86
2021/03/24 03:49:04;;;;;;;30.15;13.60;;;1.00;71.70;;;;;;5060163;28;20025;-86
2021/03/24 03:51:51;;;;;;;29.27;13.48;;;1.00;71.80;;;;;;5075395;28;20033;-86
2021/03/24 03:54:32;;;;;;;31.13;13.07;;;0.90;72.10;;;;;;5052176;28;20032;-86
2021/03/24 03:57:12;;;;;;;31.98;13.82;;;0.90;72.30;;;;;;5056983;28;20029;-86
2021/03/24 03:59:52;;;;;;;32.58;13.48;;;1.00;72.20;;;;;;5061796;28;20120;-87
2021/03/24 04:02:23;;;;;;;32.08;13.48;;;1.00;72.10;;;;;;5060248;28;20039;-87
2021/03/24 04:04:55;;;;;;;27.50;13.77;;;1.00;71.90;;;;;;5060499;28;20025;-87
2021/03/24 04:07:38;;;;;;;28.08;13.57;;;1.10;71.90;;;;;;5061664;28;20096;-87
2021/03/24 04:10:05;;;;;;;24.92;12.88;;;1.00;71.80;;;;;;5059085;28;20025;-87
2021/03/24 04:12:36;;;;;;;31.10;13.80;;;1.00;71.80;;;;;;5052883;28;20036;-86
2021/03/24 04:15:10;;;;;;;29.10;13.95;;;1.00;71.80;;;;;;5060241;28;20027;-87
2021/03/24 04:17:43;;;;;;;31.25;14.63;;;1.00;71.80;;;;;;5070955;28;20115;-87
2021/03/24 04:20:10;;;;;;;28.00;13.48;;;1.00;71.90;;;;;;5060305;28;20054;-86
2021/03/24 04:22:37;;;;;;;28.67;12.15;;;1.00;71.90;;;;;;5069397;28;20508;-86
2021/03/24 04:25:04;;;;;;;26.92;12.30;;;0.90;71.90;;;;;;5060989;28;20032;-86
2021/03/24 04:27:36;;;;;;;31.02;13.32;;;1.00;71.90;;;;;;5060107;28;20040;-86
2021/03/24 04:30:08;;;;;;;31.25;14.10;;;1.00;71.80;;;;;;5061857;28;20017;-86
2021/03/24 04:32:34;;;;;;;27.60;12.90;;;0.90;71.80;;;;;;5061653;28;20029;-86
2021/03/24 04:35:00;;;;;;;32.90;13.85;;;0.90;71.80;;;;;;5061677;28;20063;-87
2021/03/24 04:37:39;;;;;;;28.48;13.15;;;0.90;71.90;;;;;;5061291;28;20025;-87
2021/03/24 04:40:25;;;;;;;34.15;13.23;;;0.90;72.00;;;;;;5058947;28;20017;-86
2021/03/24 04:43:02;;;;;;;27.88;13.30;;;0.90;71.90;;;;;;5065176;28;20126;-87
2021/03/24 04:45:40;;;;;;;28.33;12.35;;;0.80;71.90;;;;;;5061314;28;20482;-86
2021/03/24 04:48:20;;;;;;;25.70;12.32;;;0.90;71.90;;;;;;5064562;28;20013;-87
2021/03/24 04:51:04;;;;;;;28.52;13.18;;;0.90;71.90;;;;;;5063507;28;20047;-87
2021/03/24 04:53:35;;;;;;;29.70;13.23;;;0.90;71.80;;;;;;5052855;28;20032;-87
2021/03/24 04:56:01;;;;;;;29.65;13.32;;;0.90;71.90;;;;;;5062136;28;20036;-87
2021/03/24 04:58:35;;;;;;;28.20;13.65;;;0.90;71.70;;;;;;5063141;28;20032;-87
2021/03/24 05:01:07;;;;;;;26.17;12.18;;;0.90;71.70;;;;;;5058597;28;20016;-86
2021/03/24 05:03:40;;;;;;;27.65;13.00;;;0.80;71.70;;;;;;5061961;28;20419;-87
2021/03/24 05:06:20;;;;;;;29.60;13.75;;;0.70;71.80;;;;;;5062934;28;20024;-87
2021/03/24 05:08:46;;;;;;;31.17;12.82;;;0.70;72.10;;;;;;5063235;28;20016;-87
2021/03/24 05:11:46;;;;;;;26.35;12.85;;;0.60;72.00;;;;;;5062223;28;20029;-86
2021/03/24 05:14:26;;;;;;;28.73;12.73;;;0.70;72.10;;;;;;5056269;28;20058;-86
2021/03/24 05:17:01;;;;;;;25.77;12.60;;;0.70;72.10;;;;;;5058502;28;20033;-87
2021/03/24 05:19:29;;;;;;;34.35;13.55;;;0.70;72.00;;;;;;5059014;28;20025;-87
2021/03/24 05:22:18;;;;;;;29.92;13.23;;;0.70;71.90;;;;;;5080205;28;20356;-86
2021/03/24 05:24:46;;;;;;;36.78;13.90;;;0.70;71.90;;;;;;5075334;28;20454;-87
2021/03/24 05:27:22;;;;;;;34.50;14.13;;;0.70;71.70;;;;;;5060468;28;20051;-87
2021/03/24 05:30:07;;;;;;;29.27;13.27;;;0.70;71.70;;;;;;5063243;28;20123;-86
2021/03/24 05:32:38;;;;;;;25.83;11.88;;;0.70;71.80;;;;;;5057712;28;20032;-87
2021/03/24 05:35:35;;;;;;;23.48;11.88;;;0.70;71.80;;;;;;5060871;28;20037;-86
2021/03/24 05:38:08;;;;;;;28.88;13.40;;;0.70;71.90;;;;;;5055074;28;20064;-87
2021/03/24 05:41:35;;;;;;;28.00;13.65;;;0.60;71.70;;;;;;5053538;28;20029;-86
2021/03/24 05:44:40;;;;;;;29.10;12.90;;;0.60;71.80;;;;;;5075876;28;20029;-87
2021/03/24 05:47:12;;;;;;;32.90;13.02;;;0.60;71.90;;;;;;5064353;28;20020;-87
2021/03/24 05:49:54;;;;;;;26.25;12.75;;;0.50;71.80;;;;;;5057792;28;20402;-87
2021/03/24 05:52:38;;;;;;;27.77;13.02;;;0.50;72.00;;;;;;5072928;28;20132;-87
2021/03/24 05:55:32;;;;;;;34.20;14.18;;;0.60;72.20;;;;;;5055718;28;20115;-87
2021/03/24 05:58:08;;;;;;;29.90;13.20;;;0.70;72.30;;;;;;5056392;28;20098;-86
2021/03/24 06:00:33;;;;;;;27.63;12.98;;;0.70;72.00;;;;;;5077551;28;20056;-86
2021/03/24 06:03:15;;;;;;;30.73;13.35;;;0.80;72.10;;;;;;5061486;28;20531;-86
2021/03/24 06:06:15;;;;;;;27.60;13.02;;;0.90;72.10;;;;;;5055117;28;20035;-87
2021/03/24 06:09:05;;;;;;;29.65;12.65;;;0.90;71.80;;;;;;5060567;28;20036;-85
2021/03/24 06:11:59;;;;;;;31.58;13.23;;;0.90;71.80;;;;;;5059583;28;20021;-86
2021/03/24 06:14:44;;;;;;;30.83;13.90;;;1.00;72.00;;;;;;5065832;28;20483;-85
2021/03/24 06:17:22;;;;;;;39.92;14.52;;;1.10;72.10;;;;;;5054681;28;20016;-86
2021/03/24 06:20:00;;;;;;;31.75;14.00;;;1.20;71.90;;;;;;5058572;28;20024;-85
2021/03/24 06:22:38;;;;;;;26.60;13.25;;;1.30;71.80;;;;;;5055822;28;20192;-86
2021/03/24 06:25:18;;;;;;;33.92;14.00;;;1.40;71.70;;;;;;5054187;28;20485;-85
2021/03/24 06:28:08;;;;;;;28.20;13.82;;;1.40;71.70;;;;;;5067487;28;20039;-86
2021/03/24 06:30:59;;;;;;;27.75;14.07;;;1.40;71.70;;;;;;5050129;28;20035;-86
2021/03/24 06:33:34;;;;;;;31.33;13.75;;;1.50;71.70;;;;;;5040349;28;20424;-86
2021/03/24 06:36:29;;;;;;;31.92;13.85;;;1.70;71.80;;;;;;5045383;28;20028;-86
2021/03/24 06:39:34;;;;;;;25.65;13.20;;;1.80;71.50;;;;;;5057255;28;20056;-85
2021/03/24 06:42:17;;;;;;;29.00;14.18;;;2.10;71.40;;;;;;5046449;28;20421;-85
2021/03/24 06:45:10;;;;;;;33.95;14.55;;;2.40;71.40;;;;;;5057732;28;20029;-85
2021/03/24 06:48:17;;;;;;;31.27;13.10;;;2.60;71.20;;;;;;5060244;28;20123;-86
2021/03/24 06:51:07;;;;;;;28.95;14.27;;;3.00;70.80;;;;;;5022586;28;20036;-85
2021/03/24 06:54:11;;;;;;;32.95;14.82;;;3.20;70.60;;;;;;5071091;28;20090;-85
2021/03/24 06:56:51;;;;;;;27.13;14.00;;;3.50;70.00;;;;;;5060670;28;20376;-86
2021/03/24 06:59:20;;;;;;;30.92;14.27;;;3.70;69.70;;;;;;5060278;28;20052;-86
2021/03/24 07:02:23;;;;;;;33.08;15.13;;;4.00;69.70;;;;;;5052193;28;20020;-86
2021/03/24 07:05:27;;;;;;;27.23;13.93;;;4.40;69.50;;;;;;5054802;28;20024;-85
2021/03/24 07:07:58;;;;;;;28.80;14.38;;;4.60;68.80;;;;;;4996258;28;20036;-86
2021/03/24 07:11:01;;;;;;;31.75;15.27;;;4.90;68.70;;;;;;4992559;28;20041;-87
2021/03/24 07:13:57;;;;;;;27.48;15.40;;;5.10;68.40;;;;;;5054619;28;20406;-86
2021/03/24 07:16:38;;;;;;;30.38;14.65;;;5.40;67.90;;;;;;5049475;28;20114;-86
2021/03/24 07:19:24;;;;;;;30.63;15.00;;;5.60;67.60;;;;;;5057512;28;20021;-86
2021/03/24 07:22:11;;;;;;;26.90;13.85;;;5.80;67.60;;;;;;5055448;28;20043;-86
2021/03/24 07:25:07;;;;;;;29.13;14.70;;;6.10;67.20;;;;;;5065717;28;20028;-86
2021/03/24 07:27:48;;;;;;;30.35;15.05;;;6.30;66.40;;;;;;5056604;28;20096;-87
2021/03/24 07:30:42;;;;;;;25.98;13.60;;;6.50;66.20;;;;;;5056494;28;20051;-86
2021/03/24 07:33:56;;;;;;;30.27;15.52;;;6.70;66.00;;;;;;5057921;28;20039;-86
2021/03/24 07:36:40;;;;;;;26.38;13.10;;;6.90;65.50;;;;;;5053326;28;20036;-86
2021/03/24 07:39:28;;;;;;;25.27;13.57;;;7.10;65.40;;;;;;5058557;28;20042;-87
2021/03/24 07:42:22;;;;;;;29.02;14.15;;;7.40;65.30;;;;;;5056086;28;20021;-87
2021/03/24 07:45:22;;;;;;;24.65;13.32;;;7.70;65.30;;;;;;5059011;28;20066;-87
2021/03/24 07:48:12;;;;;;;24.23;12.68;;;8.10;65.60;;;;;;5060189;28;20036;-86
2021/03/24 07:50:50;;;;;;;25.60;13.20;;;8.50;65.40;;;;;;5075528;28;20050;-86
2021/03/24 07:53:32;;;;;;;24.52;13.25;;;8.80;63.40;;;;;;5058507;28;20032;-85
2021/03/24 07:56:18;;;;;;;25.73;13.45;;;8.90;62.70;;;;;;5063965;28;20063;-86
2021/03/24 07:59:22;;;;;;;24.85;13.07;;;9.00;62.50;;;;;;5063800;28;20036;-87
2021/03/24 08:01:47;;;;;;;24.13;12.77;;;9.40;62.70;;;;;;5072610;22;20482;-91
2021/03/24 08:04:25;;;;;;;24.67;13.40;;;9.70;62.20;;;;;;5061758;28;20032;-92
2021/03/24 08:07:07;;;;;;;24.88;14.13;;;10.00;61.50;;;;;;5069636;28;20082;-91
2021/03/24 08:09:49;;;;;;;25.23;14.10;;;10.20;60.20;;;;;;5063459;28;20036;-92
2021/03/24 08:12:27;;;;;;;23.63;13.17;;;10.40;59.20;;;;;;5071882;28;20033;-92
2021/03/24 08:15:11;;;;;;;23.13;13.57;;;10.50;59.30;;;;;;5054346;28;20269;-90
2021/03/24 08:17:54;;;;;;;22.10;12.65;;;10.80;59.20;;;;;;5058813;28;20478;-91
2021/03/24 08:20:39;;;;;;;19.58;12.82;;;11.60;59.40;;;;;;5058867;28;20017;-92
2021/03/24 08:23:10;;;;;;;22.10;13.02;;;12.30;58.30;;;;;;5058885;28;20020;-92
2021/03/24 08:25:55;;;;;;;26.07;13.07;;;12.70;56.60;;;;;;5058408;28;20060;-92
2021/03/24 08:28:33;;;;;;;21.48;12.25;;;13.10;56.50;;;;;;5070425;28;20486;-93
2021/03/24 08:31:31;;;;;;;24.00;13.55;;;13.80;56.10;;;;;;5101028;28;20043;-94
2021/03/24 08:34:24;;;;;;;22.15;12.75;;;14.40;55.40;;;;;;5081494;28;20485;-92
2021/03/24 08:37:23;;;;;;;20.10;12.43;;;14.80;54.20;;;;;;5079421;28;20028;-91
2021/03/24 08:40:02;;;;;;;25.25;14.00;;;15.10;54.30;;;;;;5078349;28;20073;-92
2021/03/24 08:42:47;;;;;;;20.02;12.98;;;15.10;51.80;;;;;;5079026;28;20031;-92
2021/03/24 08:45:38;;;;;;;21.80;13.23;;;15.10;52.50;;;;;;5078929;28;20080;-91
2021/03/24 08:48:11;;;;;;;18.42;10.85;;;15.00;53.00;;;;;;5064180;28;20024;-90
2021/03/24 08:50:42;;;;;;;19.73;11.63;;;15.10;53.30;;;;;;5052074;28;20115;-92
2021/03/24 08:53:49;;;;;;;21.67;12.38;;;15.10;52.90;;;;;;5064659;28;20029;-90
2021/03/24 08:56:39;;;;;;;16.65;10.90;;;15.20;52.30;;;;;;5010781;28;20026;-92
2021/03/24 08:59:24;;;;;;;20.38;11.65;;;15.40;52.40;;;;;;4994664;28;20030;-91
2021/03/24 09:01:58;;;;;;;21.25;12.25;;;15.40;51.50;;;;;;5053775;28;20071;-92
2021/03/24 09:04:57;;;;;;;22.73;13.65;;;15.70;51.40;;;;;;5063578;28;20025;-90
2021/03/24 09:07:51;;;;;;;22.58;13.30;;;16.00;51.00;;;;;;5056811;28;20458;-90
2021/03/24 09:10:22;;;;;;;23.80;13.10;;;15.90;48.70;;;;;;5043222;28;20085;-90
2021/03/24 09:13:00;;;;;;;23.05;11.75;;;15.80;48.60;;;;;;5056607;28;20028;-90
2021/03/24 09:16:04;;;;;;;24.15;13.23;;;15.70;48.20;;;;;;5056657;28;20036;-90
2021/03/24 09:18:33;;;;;;;19.02;11.48;;;15.60;47.40;;;;;;5056913;28;20478;-90
2021/03/24 09:21:13;;;;;;;22.17;12.10;;;15.40;46.90;;;;;;5056267;28;20020;-90
2021/03/24 09:24:02;;;;;;;23.48;11.95;;;15.30;46.30;;;;;;5056754;28;20017;-90
2021/03/24 09:27:12;;;;;;;19.15;11.55;;;15.30;47.50;;;;;;5056164;28;20031;-90
2021/03/24 09:30:04;;;;;;;17.27;10.48;;;15.70;48.50;;;;;;5056514;28;20020;-90
2021/03/24 09:32:36;;;;;;;17.98;10.40;;;16.00;47.80;;;;;;5062824;28;20020;-90
2021/03/24 09:35:43;;;;;;;17.90;10.15;;;16.30;47.80;;;;;;5065625;28;20029;-90
2021/03/24 09:38:19;;;;;;;22.85;11.32;;;16.50;47.90;;;;;;4976223;28;20518;-90
2021/03/24 09:40:51;;;;;;;18.50;10.82;;;16.70;46.50;;;;;;5048307;28;20221;-90
2021/03/24 09:43:35;;;;;;;17.65;10.02;;;16.50;46.60;;;;;;5056423;28;20111;-90
2021/03/24 09:46:05;;;;;;;17.55;9.80;;;16.20;46.50;;;;;;5055924;28;20505;-91
2021/03/24 09:49:02;;;;;;;15.27;9.23;;;15.90;46.80;;;;;;5074551;28;20395;-90
2021/03/24 09:51:28;;;;;;;20.38;9.98;;;15.60;46.90;;;;;;5036407;28;20036;-90
2021/03/24 09:54:06;;;;;;;17.85;10.40;;;15.40;47.00;;;;;;5055787;28;20039;-90
2021/03/24 09:56:33;;;;;;;20.70;10.50;;;15.00;47.70;;;;;;5056127;28;20029;-90
2021/03/24 09:59:35;;;;;;;21.38;11.10;;;14.80;48.50;;;;;;5056021;28;20020;-90
2021/03/24 10:02:22;;;;;;;21.02;11.43;;;14.70;49.40;;;;;;5055275;28;20151;-90
2021/03/24 10:04:54;;;;;;;16.73;10.25;;;14.70;49.90;;;;;;5055544;28;20041;-90
2021/03/24 10:07:25;;;;;;;17.85;10.50;;;14.50;50.40;;;;;;5055770;28;20111;-90
2021/03/24 10:10:22;;;;;;;17.90;10.50;;;14.50;50.60;;;;;;5073088;28;20024;-90
2021/03/24 10:13:14;;;;;;;18.83;11.00;;;14.70;50.90;;;;;;5062363;28;20032;-90
2021/03/24 10:15:41;;;;;;;18.17;11.13;;;14.60;49.90;;;;;;5055409;28;20024;-91
2021/03/24 10:18:32;;;;;;;17.98;10.57;;;14.50;50.20;;;;;;5055555;28;20431;-90
2021/03/24 10:21:19;;;;;;;20.77;12.18;;;14.60;51.30;;;;;;5055261;28;20017;-90
2021/03/24 10:23:57;;;;;;;20.00;10.77;;;14.70;50.50;;;;;;5035748;28;20033;-90
2021/03/24 10:26:29;;;;;;;23.88;11.30;;;14.60;50.50;;;;;;5052355;28;20051;-90
2021/03/24 10:29:08;;;;;;;18.67;11.30;;;14.90;51.30;;;;;;5051972;28;20021;-91
2021/03/24 10:31:40;;;;;;;18.70;10.18;;;15.10;51.30;;;;;;5055835;28;20467;-90
2021/03/24 10:34:11;;;;;;;17.95;10.68;;;15.30;50.90;;;;;;5065535;28;20020;-90
2021/03/24 10:36:57;;;;;;;22.13;11.80;;;15.40;50.50;;;;;;5083887;28;20028;-90
2021/03/24 10:39:37;;;;;;;20.35;11.43;;;15.40;49.50;;;;;;5042695;28;20036;-89
2021/03/24 10:42:24;;;;;;;18.40;10.35;;;15.20;49.10;;;;;;5071894;28;20029;-90
2021/03/24 10:45:15;;;;;;;18.75;9.98;;;15.20;50.20;;;;;;5067757;28;20028;-89
2021/03/24 10:47:45;;;;;;;18.23;9.75;;;15.30;50.30;;;;;;5066430;28;20394;-90
2021/03/24 10:50:35;;;;;;;20.23;11.93;;;15.40;49.30;;;;;;5057407;28;20060;-90
2021/03/24 10:53:25;;;;;;;18.95;11.80;;;15.40;50.00;;;;;;5061723;28;20051;-91
2021/03/24 10:56:31;;;;;;;23.52;12.75;;;15.60;49.60;;;;;;5058662;28;20138;-90
2021/03/24 10:59:25;;;;;;;18.73;10.93;;;15.70;48.70;;;;;;5059601;28;20398;-92
2021/03/24 11:01:53;;;;;;;18.63;11.57;;;15.60;48.30;;;;;;5053374;28;20028;-90
2021/03/24 11:04:24;;;;;;;20.10;10.15;;;15.60;49.00;;;;;;5066706;28;20028;-90
2021/03/24 11:07:12;;;;;;;17.17;10.10;;;15.80;49.60;;;;;;5055314;28;20028;-90
2021/03/24 11:10:00;;;;;;;19.08;11.23;;;16.10;49.90;;;;;;5055473;28;20028;-90
2021/03/24 11:12:43;;;;;;;18.85;10.93;;;16.30;49.50;;;;;;5057489;28;20514;-90
2021/03/24 11:15:28;;;;;;;18.83;10.15;;;16.40;49.10;;;;;;5058620;28;20033;-90
2021/03/24 11:18:02;;;;;;;19.75;11.02;;;16.60;49.70;;;;;;5071678;28;20039;-91
2021/03/24 11:20:44;;;;;;;17.42;10.40;;;16.90;48.90;;;;;;5035452;28;20167;-91
2021/03/24 11:23:15;;;;;;;16.73;10.48;;;17.00;48.80;;;;;;5068455;28;20153;-90
2021/03/24 11:25:51;;;;;;;17.80;10.48;;;17.20;48.80;;;;;;5054418;28;20035;-89
2021/03/24 11:28:32;;;;;;;18.20;10.27;;;17.30;48.60;;;;;;5070612;28;20048;-90
2021/03/24 11:31:11;;;;;;;16.13;9.68;;;17.40;48.60;;;;;;5065832;28;20029;-89
2021/03/24 11:33:53;;;;;;;15.32;9.50;;;17.50;48.20;;;;;;5057855;28;20150;-91
2021/03/24 11:36:29;;;;;;;19.05;10.20;;;17.60;47.70;;;;;;5043693;28;20024;-93
2021/03/24 11:39:55;;;;;;;17.27;10.27;;;17.60;46.90;;;;;;5056877;28;20029;-92
2021/03/24 11:42:23;;;;;;;16.20;9.18;;;17.50;46.20;;;;;;4973609;28;20027;-91
2021/03/24 11:44:51;;;;;;;113.18;70.30;;;17.40;46.00;;;;;;5040089;28;20060;-92
2021/03/24 11:47:41;;;;;;;18.58;10.63;;;17.30;45.70;;;;;;5073082;28;20068;-92
2021/03/24 11:50:47;;;;;;;16.83;9.13;;;17.30;46.70;;;;;;5059318;28;20024;-94
2021/03/24 11:53:40;;;;;;;14.10;9.10;;;17.50;47.10;;;;;;5059968;28;20056;-92
2021/03/24 11:56:39;;;;;;;12.90;8.30;;;17.70;46.30;;;;;;5057303;28;20024;-92
2021/03/24 11:59:23;;;;;;;13.77;8.23;;;17.60;46.40;;;;;;5062606;28;20037;-92
2021/03/24 12:02:16;;;;;;;17.08;9.40;;;17.80;47.20;;;;;;5071407;28;20029;-91
2021/03/24 12:05:00;;;;;;;20.23;11.48;;;18.00;47.10;;;;;;5066036;28;20033;-89
2021/03/24 12:07:45;;;;;;;21.75;12.70;;;18.30;47.40;;;;;;5068113;28;20109;-92
2021/03/24 12:10:17;;;;;;;24.13;14.10;;;18.60;47.50;;;;;;5059129;28;20056;-93
2021/03/24 12:12:42;;;;;;;23.55;12.68;;;18.80;46.90;;;;;;5087799;23;20044;-67
2021/03/24 12:15:17;;;;;;;21.33;13.27;;;18.90;47.00;;;;;;5090034;28;20043;-67
2021/03/24 12:17:43;;;;;;;23.55;13.23;;;19.00;47.00;;;;;;5090703;28;20039;-67
2021/03/24 12:20:13;;;;;;;25.25;13.75;;;19.10;46.60;;;;;;5077489;28;20029;-67
2021/03/24 12:22:49;;;;;;;24.45;13.23;;;19.20;45.80;;;;;;5056839;28;20028;-67
2021/03/24 12:25:31;;;;;;;24.95;13.88;;;19.10;46.50;;;;;;5092463;28;20036;-67
2021/03/24 12:28:04;;;;;;;20.15;11.73;;;19.10;45.40;;;;;;5056206;28;20128;-67
2021/03/24 12:30:44;;;;;;;24.13;13.23;;;19.00;46.00;;;;;;5061537;28;20043;-66
2021/03/24 12:33:16;;;;;;;19.15;11.98;;;19.10;46.60;;;;;;5079809;28;20085;-66
2021/03/24 12:35:47;;;;;;;20.02;12.05;;;19.10;46.30;;;;;;5063131;28;20090;-67
2021/03/24 12:38:19;;;;;;;24.60;14.10;;;19.20;46.40;;;;;;5056119;28;20111;-66
2021/03/24 12:40:53;;;;;;;18.98;12.82;;;19.30;46.10;;;;;;5058875;28;20048;-67
2021/03/24 12:43:25;;;;;;;21.00;13.15;;;19.30;46.30;;;;;;5076486;28;20040;-67
2021/03/24 12:45:50;;;;;;;24.00;13.07;;;19.40;46.10;;;;;;5055254;28;20512;-66
2021/03/24 12:48:24;;;;;;;22.88;13.75;;;19.50;46.20;;;;;;5056934;28;20039;-67
2021/03/24 12:50:56;;;;;;;22.95;12.88;;;19.60;45.40;;;;;;5056122;28;20032;-67
2021/03/24 12:53:54;;;;;;;21.38;12.35;;;19.60;45.10;;;;;;5069513;28;20094;-67
2021/03/24 12:56:25;;;;;;;22.23;12.68;;;19.60;46.10;;;;;;5061815;28;20039;-68
2021/03/24 12:58:57;;;;;;;29.48;14.77;;;19.70;45.60;;;;;;5073759;28;20020;-68
2021/03/24 13:01:41;;;;;;;;;;;19.70;45.30;;;;;;5067895;28;20026;-66
2021/03/24 13:04:28;;;;;;;18.73;12.02;;;19.90;46.90;;;;;;5062088;28;19951;-67
2021/03/24 13:07:03;;;;;;;18.73;12.18;;;19.90;44.40;;;;;;5071787;28;20013;-67
2021/03/24 13:09:43;;;;;;;21.17;12.15;;;19.80;43.30;;;;;;5061814;28;20031;-68
2021/03/24 13:12:12;;;;;;;17.35;11.70;;;19.60;44.00;;;;;;5076390;28;20055;-67
2021/03/24 13:15:12;;;;;;;22.40;11.43;;;19.70;44.60;;;;;;5087277;28;20032;-67
2021/03/24 13:18:00;;;;;;;17.92;10.63;;;19.80;45.10;;;;;;5071569;28;20032;-67
2021/03/24 13:20:29;;;;;;;18.90;12.18;;;20.00;44.90;;;;;;5078432;28;20029;-67
2021/03/24 13:23:11;;;;;;;18.27;11.48;;;20.20;44.40;;;;;;5067817;28;20024;-66
2021/03/24 13:25:53;;;;;;;22.08;11.10;;;20.10;43.70;;;;;;5063521;28;20496;-66
2021/03/24 13:28:48;;;;;;;17.52;11.27;;;20.20;44.10;;;;;;5068780;28;20047;-64